sensor_id;sensor_type;location;lat;lon;timestamp;pressure;altitude;pressure_sealevel;temperature;humidity
24746;BME280;12845;52.042;6.838;2023-02-20T00:00:38;-18160.63;;;4.93;100.00
24746;BME280;12845;52.042;6.838;2023-02-20T00:03:04;-18160.91;;;4.94;100.00
24746;BME280;12845;52.042;6.838;2023-02-20T00:05:30;-18161.47;;;4.96;100.00
24746;BME280;12845;52.042;6.838;2023-02-20T00:07:55;-18162.84;;;5.01;100.00
24746;BME280;12845;52.042;6.838;2023-02-20T00:10:20;-18163.13;;;5.02;100.00
24746;BME280;12845;52.042;6.838;2023-02-20T00:12:46;-18162.16;;;4.98;100.00
24746;BME280;12845;52.042;6.838;2023-02-20T00:15:13;-18161.19;;;4.95;100.00
24746;BME280;12845;52.042;6.838;2023-02-20T00:17:40;-18162.03;;;4.98;100.00
24746;BME280;12845;52.042;6.838;2023-02-20T00:20:06;-18161.88;;;4.97;100.00
24746;BME280;12845;52.042;6.838;2023-02-20T00:22:31;-18162.72;;;5.01;100.00
24746;BME280;12845;52.042;6.838;2023-02-20T00:24:57;-18161.47;;;4.96;100.00
24746;BME280;12845;52.042;6.838;2023-02-20T00:27:22;-18159.94;;;4.90;100.00
24746;BME280;12845;52.042;6.838;2023-02-20T00:29:47;-18158.00;;;4.83;100.00
24746;BME280;12845;52.042;6.838;2023-02-20T00:32:12;-18158.69;;;4.86;100.00
24746;BME280;12845;52.042;6.838;2023-02-20T00:34:38;-18158.84;;;4.86;100.00
24746;BME280;12845;52.042;6.838;2023-02-20T00:37:03;-18158.44;;;4.85;100.00
24746;BME280;12845;52.042;6.838;2023-02-20T00:39:28;-18158.84;;;4.86;100.00
24746;BME280;12845;52.042;6.838;2023-02-20T00:41:55;-18158.69;;;4.86;100.00
24746;BME280;12845;52.042;6.838;2023-02-20T00:44:21;-18158.97;;;4.87;100.00
24746;BME280;12845;52.042;6.838;2023-02-20T00:46:46;-18157.88;;;4.83;100.00
24746;BME280;12845;52.042;6.838;2023-02-20T00:49:12;-18159.38;;;4.88;100.00
24746;BME280;12845;52.042;6.838;2023-02-20T00:51:37;-18158.69;;;4.86;100.00
24746;BME280;12845;52.042;6.838;2023-02-20T00:54:02;-18158.56;;;4.85;100.00
24746;BME280;12845;52.042;6.838;2023-02-20T00:56:27;-18159.81;;;4.90;100.00
24746;BME280;12845;52.042;6.838;2023-02-20T00:58:53;-18159.66;;;4.89;100.00
24746;BME280;12845;52.042;6.838;2023-02-20T01:01:18;-18161.03;;;4.94;100.00
24746;BME280;12845;52.042;6.838;2023-02-20T01:03:43;-18162.84;;;5.01;100.00
24746;BME280;12845;52.042;6.838;2023-02-20T01:06:09;-18162.28;;;4.99;100.00
24746;BME280;12845;52.042;6.838;2023-02-20T01:08:34;-18162.84;;;5.01;100.00
24746;BME280;12845;52.042;6.838;2023-02-20T01:11:00;-18164.22;;;5.06;100.00
24746;BME280;12845;52.042;6.838;2023-02-20T01:13:25;-18164.78;;;5.08;100.00
24746;BME280;12845;52.042;6.838;2023-02-20T01:15:50;-18163.53;;;5.04;100.00
24746;BME280;12845;52.042;6.838;2023-02-20T01:18:16;-18164.09;;;5.06;100.00
24746;BME280;12845;52.042;6.838;2023-02-20T01:20:41;-18162.56;;;5.00;100.00
24746;BME280;12845;52.042;6.838;2023-02-20T01:23:06;-18162.28;;;4.99;100.00
24746;BME280;12845;52.042;6.838;2023-02-20T01:25:31;-18162.28;;;4.99;100.00
24746;BME280;12845;52.042;6.838;2023-02-20T01:27:57;-18162.03;;;4.98;100.00
24746;BME280;12845;52.042;6.838;2023-02-20T01:30:22;-18162.72;;;5.01;100.00
24746;BME280;12845;52.042;6.838;2023-02-20T01:32:47;-18162.56;;;5.00;100.00
24746;BME280;12845;52.042;6.838;2023-02-20T01:35:13;-18161.03;;;4.94;100.00
24746;BME280;12845;52.042;6.838;2023-02-20T01:37:38;-18162.03;;;4.98;100.00
24746;BME280;12845;52.042;6.838;2023-02-20T01:40:04;-18162.97;;;5.02;100.00
24746;BME280;12845;52.042;6.838;2023-02-20T01:42:31;-18162.28;;;4.99;100.00
24746;BME280;12845;52.042;6.838;2023-02-20T01:47:41;-18163.25;;;5.03;100.00
24746;BME280;12845;52.042;6.838;2023-02-20T01:50:07;-18163.13;;;5.02;100.00
24746;BME280;12845;52.042;6.838;2023-02-20T01:52:33;-18162.72;;;5.01;100.00
24746;BME280;12845;52.042;6.838;2023-02-20T01:55:04;-18162.16;;;4.98;100.00
24746;BME280;12845;52.042;6.838;2023-02-20T01:57:31;-18163.25;;;5.03;100.00
24746;BME280;12845;52.042;6.838;2023-02-20T01:59:59;-18162.44;;;5.00;100.00
24746;BME280;12845;52.042;6.838;2023-02-20T02:02:27;-18162.97;;;5.02;100.00
24746;BME280;12845;52.042;6.838;2023-02-20T02:04:55;-18163.53;;;5.04;100.00
24746;BME280;12845;52.042;6.838;2023-02-20T02:07:20;-18163.41;;;5.03;100.00
24746;BME280;12845;52.042;6.838;2023-02-20T02:09:52;-18162.84;;;5.01;100.00
24746;BME280;12845;52.042;6.838;2023-02-20T02:12:20;-18163.13;;;5.02;100.00
24746;BME280;12845;52.042;6.838;2023-02-20T02:14:46;-18162.84;;;5.01;100.00
24746;BME280;12845;52.042;6.838;2023-02-20T02:17:22;-18162.16;;;4.98;100.00
24746;BME280;12845;52.042;6.838;2023-02-20T02:28:15;-18162.84;;;5.01;100.00
24746;BME280;12845;52.042;6.838;2023-02-20T02:43:52;-18162.72;;;5.01;100.00
24746;BME280;12845;52.042;6.838;2023-02-20T02:46:24;-18162.28;;;4.99;100.00
24746;BME280;12845;52.042;6.838;2023-02-20T02:48:53;-18161.47;;;4.96;100.00
24746;BME280;12845;52.042;6.838;2023-02-20T02:51:22;-18161.59;;;4.96;100.00
24746;BME280;12845;52.042;6.838;2023-02-20T02:56:36;-18160.63;;;4.93;100.00
24746;BME280;12845;52.042;6.838;2023-02-20T02:59:02;-18160.34;;;4.92;100.00
24746;BME280;12845;52.042;6.838;2023-02-20T03:01:28;-18159.81;;;4.90;100.00
24746;BME280;12845;52.042;6.838;2023-02-20T03:03:55;-18160.09;;;4.91;100.00
24746;BME280;12845;52.042;6.838;2023-02-20T03:06:25;-18159.25;;;4.88;100.00
24746;BME280;12845;52.042;6.838;2023-02-20T03:11:22;-18159.25;;;4.88;100.00
24746;BME280;12845;52.042;6.838;2023-02-20T03:22:21;-18158.97;;;4.87;100.00
24746;BME280;12845;52.042;6.838;2023-02-20T03:24:48;-18159.53;;;4.89;100.00
24746;BME280;12845;52.042;6.838;2023-02-20T03:27:26;-18159.53;;;4.89;100.00
24746;BME280;12845;52.042;6.838;2023-02-20T03:29:55;-18159.66;;;4.89;100.00
24746;BME280;12845;52.042;6.838;2023-02-20T03:32:21;-18160.50;;;4.92;100.00
24746;BME280;12845;52.042;6.838;2023-02-20T03:35:06;-18159.81;;;4.90;100.00
24746;BME280;12845;52.042;6.838;2023-02-20T03:37:52;-18160.50;;;4.92;100.00
24746;BME280;12845;52.042;6.838;2023-02-20T03:40:35;-18160.91;;;4.94;100.00
24746;BME280;12845;52.042;6.838;2023-02-20T03:43:20;-18160.91;;;4.94;100.00
24746;BME280;12845;52.042;6.838;2023-02-20T03:45:45;-18159.66;;;4.89;100.00
24746;BME280;12845;52.042;6.838;2023-02-20T03:48:31;-18160.50;;;4.92;100.00
24746;BME280;12845;52.042;6.838;2023-02-20T03:50:57;-18160.09;;;4.91;100.00
24746;BME280;12845;52.042;6.838;2023-02-20T03:53:42;-18160.50;;;4.92;100.00
24746;BME280;12845;52.042;6.838;2023-02-20T03:56:08;-18160.78;;;4.93;100.00
24746;BME280;12845;52.042;6.838;2023-02-20T03:58:36;-18161.19;;;4.95;100.00
24746;BME280;12845;52.042;6.838;2023-02-20T04:01:03;-18161.59;;;4.96;100.00
24746;BME280;12845;52.042;6.838;2023-02-20T04:03:30;-18161.47;;;4.96;100.00
24746;BME280;12845;52.042;6.838;2023-02-20T04:05:58;-18162.28;;;4.99;100.00
24746;BME280;12845;52.042;6.838;2023-02-20T04:13:25;-18163.25;;;5.03;100.00
24746;BME280;12845;52.042;6.838;2023-02-20T04:15:50;-18163.53;;;5.04;100.00
24746;BME280;12845;52.042;6.838;2023-02-20T04:18:17;-18164.09;;;5.06;100.00
24746;BME280;12845;52.042;6.838;2023-02-20T04:20:51;-18164.50;;;5.07;100.00
24746;BME280;12845;52.042;6.838;2023-02-20T04:23:18;-18164.78;;;5.08;100.00
24746;BME280;12845;52.042;6.838;2023-02-20T04:25:45;-18165.06;;;5.09;100.00
24746;BME280;12845;52.042;6.838;2023-02-20T04:28:11;-18165.75;;;5.12;100.00
24746;BME280;12845;52.042;6.838;2023-02-20T04:30:36;-18166.56;;;5.15;100.00
24746;BME280;12845;52.042;6.838;2023-02-20T04:33:02;-18167.13;;;5.17;100.00
24746;BME280;12845;52.042;6.838;2023-02-20T04:35:27;-18167.53;;;5.18;100.00
24746;BME280;12845;52.042;6.838;2023-02-20T04:37:52;-18167.94;;;5.20;100.00
24746;BME280;12845;52.042;6.838;2023-02-20T04:40:19;-18168.50;;;5.22;100.00
24746;BME280;12845;52.042;6.838;2023-02-20T04:42:44;-18168.91;;;5.24;100.00
24746;BME280;12845;52.042;6.838;2023-02-20T04:45:10;-18168.78;;;5.23;100.00
24746;BME280;12845;52.042;6.838;2023-02-20T04:47:35;-18169.47;;;5.26;100.00
24746;BME280;12845;52.042;6.838;2023-02-20T04:50:00;-18169.75;;;5.27;100.00
24746;BME280;12845;52.042;6.838;2023-02-20T04:52:26;-18170.28;;;5.29;100.00
24746;BME280;12845;52.042;6.838;2023-02-20T04:54:51;-18169.59;;;5.26;100.00
24746;BME280;12845;52.042;6.838;2023-02-20T04:57:17;-18170.03;;;5.28;100.00
24746;BME280;12845;52.042;6.838;2023-02-20T04:59:43;-18170.28;;;5.29;100.00
24746;BME280;12845;52.042;6.838;2023-02-20T05:02:08;-18171.25;;;5.32;100.00
24746;BME280;12845;52.042;6.838;2023-02-20T05:04:33;-18170.72;;;5.30;100.00
24746;BME280;12845;52.042;6.838;2023-02-20T05:06:59;-18171.81;;;5.34;100.00
24746;BME280;12845;52.042;6.838;2023-02-20T05:09:24;-18171.94;;;5.35;100.00
24746;BME280;12845;52.042;6.838;2023-02-20T05:11:49;-18172.22;;;5.36;100.00
24746;BME280;12845;52.042;6.838;2023-02-20T05:14:15;-18172.78;;;5.38;100.00
24746;BME280;12845;52.042;6.838;2023-02-20T05:16:40;-18172.91;;;5.38;100.00
24746;BME280;12845;52.042;6.838;2023-02-20T05:19:06;-18173.06;;;5.39;100.00
24746;BME280;12845;52.042;6.838;2023-02-20T05:21:32;-18173.88;;;5.42;100.00
24746;BME280;12845;52.042;6.838;2023-02-20T05:24:18;-18174.16;;;5.43;100.00
24746;BME280;12845;52.042;6.838;2023-02-20T05:26:43;-18173.06;;;5.39;100.00
24746;BME280;12845;52.042;6.838;2023-02-20T05:29:08;-18173.47;;;5.40;100.00
24746;BME280;12845;52.042;6.838;2023-02-20T05:31:36;-18173.63;;;5.41;100.00
24746;BME280;12845;52.042;6.838;2023-02-20T05:34:01;-18174.28;;;5.43;100.00
24746;BME280;12845;52.042;6.838;2023-02-20T05:36:26;-18174.56;;;5.45;100.00
24746;BME280;12845;52.042;6.838;2023-02-20T05:38:52;-18174.44;;;5.44;100.00
24746;BME280;12845;52.042;6.838;2023-02-20T05:41:17;-18174.56;;;5.45;100.00
24746;BME280;12845;52.042;6.838;2023-02-20T05:43:42;-18174.72;;;5.45;100.00
24746;BME280;12845;52.042;6.838;2023-02-20T05:46:08;-18175.25;;;5.47;100.00
24746;BME280;12845;52.042;6.838;2023-02-20T05:48:33;-18175.69;;;5.49;100.00
24746;BME280;12845;52.042;6.838;2023-02-20T05:50:59;-18175.41;;;5.48;100.00
24746;BME280;12845;52.042;6.838;2023-02-20T05:53:27;-18176.78;;;5.53;100.00
24746;BME280;12845;52.042;6.838;2023-02-20T05:55:53;-18177.19;;;5.54;100.00
24746;BME280;12845;52.042;6.838;2023-02-20T05:58:18;-18177.06;;;5.54;100.00
24746;BME280;12845;52.042;6.838;2023-02-20T06:00:43;-18177.75;;;5.56;100.00
24746;BME280;12845;52.042;6.838;2023-02-20T06:03:09;-18176.63;;;5.52;100.00
24746;BME280;12845;52.042;6.838;2023-02-20T06:05:34;-18177.19;;;5.54;100.00
24746;BME280;12845;52.042;6.838;2023-02-20T06:07:59;-18177.19;;;5.54;100.00
24746;BME280;12845;52.042;6.838;2023-02-20T06:10:25;-18177.63;;;5.56;100.00
24746;BME280;12845;52.042;6.838;2023-02-20T06:12:50;-18178.16;;;5.58;100.00
24746;BME280;12845;52.042;6.838;2023-02-20T06:15:15;-18178.72;;;5.60;100.00
24746;BME280;12845;52.042;6.838;2023-02-20T06:17:41;-18179.13;;;5.61;100.00
24746;BME280;12845;52.042;6.838;2023-02-20T06:20:06;-18179.53;;;5.63;100.00
24746;BME280;12845;52.042;6.838;2023-02-20T06:22:31;-18180.78;;;5.68;100.00
24746;BME280;12845;52.042;6.838;2023-02-20T06:24:57;-18181.63;;;5.71;100.00
24746;BME280;12845;52.042;6.838;2023-02-20T06:27:22;-18182.44;;;5.74;100.00
24746;BME280;12845;52.042;6.838;2023-02-20T06:29:47;-18183.13;;;5.76;100.00
24746;BME280;12845;52.042;6.838;2023-02-20T06:32:12;-18183.81;;;5.79;100.00
24746;BME280;12845;52.042;6.838;2023-02-20T06:34:38;-18184.09;;;5.80;100.00
24746;BME280;12845;52.042;6.838;2023-02-20T06:37:03;-18185.88;;;5.86;100.00
24746;BME280;12845;52.042;6.838;2023-02-20T06:39:29;-18185.75;;;5.86;100.00
24746;BME280;12845;52.042;6.838;2023-02-20T06:41:55;-18185.88;;;5.86;100.00
24746;BME280;12845;52.042;6.838;2023-02-20T06:44:20;-18186.72;;;5.89;100.00
24746;BME280;12845;52.042;6.838;2023-02-20T06:46:45;-18186.84;;;5.90;100.00
24746;BME280;12845;52.042;6.838;2023-02-20T06:49:11;-18187.00;;;5.91;100.00
24746;BME280;12845;52.042;6.838;2023-02-20T06:51:36;-18187.69;;;5.93;100.00
24746;BME280;12845;52.042;6.838;2023-02-20T06:54:01;-18187.97;;;5.94;100.00
24746;BME280;12845;52.042;6.838;2023-02-20T06:56:29;-18188.22;;;5.95;100.00
24746;BME280;12845;52.042;6.838;2023-02-20T06:58:54;-18188.78;;;5.97;100.00
24746;BME280;12845;52.042;6.838;2023-02-20T07:01:21;-18188.94;;;5.98;100.00
24746;BME280;12845;52.042;6.838;2023-02-20T07:03:47;-18189.06;;;5.98;100.00
24746;BME280;12845;52.042;6.838;2023-02-20T07:06:13;-18190.16;;;6.02;100.00
24746;BME280;12845;52.042;6.838;2023-02-20T07:08:38;-18190.59;;;6.04;100.00
24746;BME280;12845;52.042;6.838;2023-02-20T07:11:03;-18191.13;;;6.06;100.00
24746;BME280;12845;52.042;6.838;2023-02-20T07:13:28;-18191.56;;;6.07;100.00
24746;BME280;12845;52.042;6.838;2023-02-20T07:15:54;-18191.56;;;6.07;100.00
24746;BME280;12845;52.042;6.838;2023-02-20T07:18:19;-18192.09;;;6.09;100.00
24746;BME280;12845;52.042;6.838;2023-02-20T07:20:47;-18191.56;;;6.07;100.00
24746;BME280;12845;52.042;6.838;2023-02-20T07:23:13;-18192.50;;;6.11;100.00
24746;BME280;12845;52.042;6.838;2023-02-20T07:25:38;-18193.19;;;6.14;100.00
24746;BME280;12845;52.042;6.838;2023-02-20T07:28:03;-18193.47;;;6.15;100.00
24746;BME280;12845;52.042;6.838;2023-02-20T07:30:29;-18193.34;;;6.14;100.00
24746;BME280;12845;52.042;6.838;2023-02-20T07:32:54;-18194.16;;;6.17;100.00
24746;BME280;12845;52.042;6.838;2023-02-20T07:35:19;-18194.72;;;6.19;100.00
24746;BME280;12845;52.042;6.838;2023-02-20T07:37:44;-18195.97;;;6.24;100.00
24746;BME280;12845;52.042;6.838;2023-02-20T07:40:10;-18196.38;;;6.25;100.00
24746;BME280;12845;52.042;6.838;2023-02-20T07:42:36;-18196.78;;;6.27;100.00
24746;BME280;12845;52.042;6.838;2023-02-20T07:45:01;-18197.34;;;6.29;100.00
24746;BME280;12845;52.042;6.838;2023-02-20T07:47:26;-18197.34;;;6.29;100.00
24746;BME280;12845;52.042;6.838;2023-02-20T07:49:51;-18198.59;;;6.33;100.00
24746;BME280;12845;52.042;6.838;2023-02-20T07:52:16;-18199.69;;;6.38;100.00
24746;BME280;12845;52.042;6.838;2023-02-20T07:54:42;-18200.25;;;6.40;100.00
24746;BME280;12845;52.042;6.838;2023-02-20T07:57:07;-18200.50;;;6.41;100.00
24746;BME280;12845;52.042;6.838;2023-02-20T07:59:32;-18201.19;;;6.43;100.00
24746;BME280;12845;52.042;6.838;2023-02-20T08:01:58;-18201.88;;;6.46;100.00
24746;BME280;12845;52.042;6.838;2023-02-20T08:04:23;-18202.03;;;6.46;100.00
24746;BME280;12845;52.042;6.838;2023-02-20T08:06:48;-18202.72;;;6.49;100.00
24746;BME280;12845;52.042;6.838;2023-02-20T08:09:13;-18203.00;;;6.50;100.00
24746;BME280;12845;52.042;6.838;2023-02-20T08:11:39;-18203.69;;;6.52;100.00
24746;BME280;12845;52.042;6.838;2023-02-20T08:14:04;-18204.09;;;6.54;100.00
24746;BME280;12845;52.042;6.838;2023-02-20T08:16:30;-18204.78;;;6.57;100.00
24746;BME280;12845;52.042;6.838;2023-02-20T08:18:55;-18205.19;;;6.58;100.00
24746;BME280;12845;52.042;6.838;2023-02-20T08:21:20;-18206.16;;;6.62;100.00
24746;BME280;12845;52.042;6.838;2023-02-20T08:23:45;-18206.31;;;6.62;100.00
24746;BME280;12845;52.042;6.838;2023-02-20T08:26:11;-18206.84;;;6.64;100.00
24746;BME280;12845;52.042;6.838;2023-02-20T08:28:37;-18207.53;;;6.67;100.00
24746;BME280;12845;52.042;6.838;2023-02-20T08:31:02;-18207.81;;;6.68;100.00
24746;BME280;12845;52.042;6.838;2023-02-20T08:33:27;-18207.97;;;6.68;100.00
24746;BME280;12845;52.042;6.838;2023-02-20T08:35:52;-18208.91;;;6.72;100.00
24746;BME280;12845;52.042;6.838;2023-02-20T08:38:30;-18209.59;;;6.74;100.00
24746;BME280;12845;52.042;6.838;2023-02-20T08:40:56;-18209.75;;;6.75;100.00
24746;BME280;12845;52.042;6.838;2023-02-20T08:43:21;-18210.84;;;6.79;100.00
24746;BME280;12845;52.042;6.838;2023-02-20T08:45:47;-18211.53;;;6.82;100.00
24746;BME280;12845;52.042;6.838;2023-02-20T08:48:12;-18211.41;;;6.81;100.00
24746;BME280;12845;52.042;6.838;2023-02-20T08:50:37;-18212.22;;;6.84;100.00
24746;BME280;12845;52.042;6.838;2023-02-20T08:53:03;-18212.78;;;6.86;100.00
24746;BME280;12845;52.042;6.838;2023-02-20T08:55:28;-18213.34;;;6.88;100.00
24746;BME280;12845;52.042;6.838;2023-02-20T08:57:53;-18213.59;;;6.89;100.00
24746;BME280;12845;52.042;6.838;2023-02-20T09:00:20;-18213.88;;;6.90;100.00
24746;BME280;12845;52.042;6.838;2023-02-20T09:02:46;-18214.44;;;6.92;100.00
24746;BME280;12845;52.042;6.838;2023-02-20T09:05:11;-18214.56;;;6.93;100.00
24746;BME280;12845;52.042;6.838;2023-02-20T09:07:36;-18214.44;;;6.92;100.00
24746;BME280;12845;52.042;6.838;2023-02-20T09:10:02;-18214.84;;;6.94;100.00
24746;BME280;12845;52.042;6.838;2023-02-20T09:12:27;-18215.69;;;6.97;100.00
24746;BME280;12845;52.042;6.838;2023-02-20T09:14:53;-18215.94;;;6.98;100.00
24746;BME280;12845;52.042;6.838;2023-02-20T09:17:18;-18217.19;;;7.03;100.00
24746;BME280;12845;52.042;6.838;2023-02-20T09:19:43;-18218.03;;;7.06;100.00
24746;BME280;12845;52.042;6.838;2023-02-20T09:22:08;-18218.44;;;7.07;100.00
24746;BME280;12845;52.042;6.838;2023-02-20T09:24:34;-18218.28;;;7.07;100.00
24746;BME280;12845;52.042;6.838;2023-02-20T09:27:00;-18218.72;;;7.08;100.00
24746;BME280;12845;52.042;6.838;2023-02-20T09:29:26;-18218.84;;;7.09;100.00
24746;BME280;12845;52.042;6.838;2023-02-20T09:31:51;-18220.22;;;7.14;100.00
24746;BME280;12845;52.042;6.838;2023-02-20T09:34:16;-18220.63;;;7.15;100.00
24746;BME280;12845;52.042;6.838;2023-02-20T09:36:42;-18221.19;;;7.17;100.00
24746;BME280;12845;52.042;6.838;2023-02-20T09:39:07;-18221.47;;;7.18;100.00
24746;BME280;12845;52.042;6.838;2023-02-20T09:41:48;-18222.16;;;7.21;100.00
24746;BME280;12845;52.042;6.838;2023-02-20T09:46:51;-18223.41;;;7.26;100.00
24746;BME280;12845;52.042;6.838;2023-02-20T09:49:21;-18224.34;;;7.29;100.00
24746;BME280;12845;52.042;6.838;2023-02-20T09:51:53;-18224.63;;;7.30;100.00
24746;BME280;12845;52.042;6.838;2023-02-20T09:56:48;-18225.47;;;7.33;100.00
24746;BME280;12845;52.042;6.838;2023-02-20T10:01:47;-18227.13;;;7.39;100.00
24746;BME280;12845;52.042;6.838;2023-02-20T10:04:14;-18227.13;;;7.39;100.00
24746;BME280;12845;52.042;6.838;2023-02-20T10:06:42;-18227.13;;;7.39;100.00
24746;BME280;12845;52.042;6.838;2023-02-20T10:09:09;-18227.38;;;7.40;100.00
24746;BME280;12845;52.042;6.838;2023-02-20T10:11:52;-18227.38;;;7.40;100.00
24746;BME280;12845;52.042;6.838;2023-02-20T10:17:09;-18227.38;;;7.40;100.00
24746;BME280;12845;52.042;6.838;2023-02-20T10:19:43;-18226.00;;;7.35;100.00
24746;BME280;12845;52.042;6.838;2023-02-20T10:22:19;-18226.69;;;7.38;100.00
24746;BME280;12845;52.042;6.838;2023-02-20T10:29:43;-18226.28;;;7.36;100.00
24746;BME280;12845;52.042;6.838;2023-02-20T10:32:09;-18226.28;;;7.36;100.00
24746;BME280;12845;52.042;6.838;2023-02-20T10:34:48;-18226.97;;;7.39;100.00
24746;BME280;12845;52.042;6.838;2023-02-20T10:37:19;-18226.84;;;7.38;100.00
24746;BME280;12845;52.042;6.838;2023-02-20T10:40:10;-18227.38;;;7.40;100.00
24746;BME280;12845;52.042;6.838;2023-02-20T10:43:04;-18226.56;;;7.37;100.00
24746;BME280;12845;52.042;6.838;2023-02-20T10:48:14;-18226.97;;;7.39;100.00
24746;BME280;12845;52.042;6.838;2023-02-20T10:55:39;-18228.06;;;7.43;100.00
24746;BME280;12845;52.042;6.838;2023-02-20T10:58:07;-18227.66;;;7.41;100.00
24746;BME280;12845;52.042;6.838;2023-02-20T11:00:37;-18228.06;;;7.43;100.00
24746;BME280;12845;52.042;6.838;2023-02-20T11:03:24;-18228.63;;;7.45;100.00
24746;BME280;12845;52.042;6.838;2023-02-20T11:05:52;-18229.03;;;7.46;100.00
24746;BME280;12845;52.042;6.838;2023-02-20T11:08:18;-18229.03;;;7.46;100.00
24746;BME280;12845;52.042;6.838;2023-02-20T11:10:45;-18228.75;;;7.45;100.00
24746;BME280;12845;52.042;6.838;2023-02-20T11:13:12;-18229.59;;;7.49;100.00
24746;BME280;12845;52.042;6.838;2023-02-20T11:15:39;-18229.03;;;7.46;100.00
24746;BME280;12845;52.042;6.838;2023-02-20T11:18:10;-18228.91;;;7.46;100.00
24746;BME280;12845;52.042;6.838;2023-02-20T11:20:42;-18229.72;;;7.49;100.00
24746;BME280;12845;52.042;6.838;2023-02-20T11:23:10;-18230.13;;;7.51;100.00
24746;BME280;12845;52.042;6.838;2023-02-20T11:25:55;-18229.47;;;7.48;100.00
24746;BME280;12845;52.042;6.838;2023-02-20T11:28:36;-18230.41;;;7.52;100.00
24746;BME280;12845;52.042;6.838;2023-02-20T11:31:04;-18230.56;;;7.52;100.00
24746;BME280;12845;52.042;6.838;2023-02-20T11:33:32;-18229.88;;;7.50;100.00
24746;BME280;12845;52.042;6.838;2023-02-20T11:36:08;-18229.88;;;7.50;100.00
24746;BME280;12845;52.042;6.838;2023-02-20T11:38:34;-18230.56;;;7.52;100.00
24746;BME280;12845;52.042;6.838;2023-02-20T11:41:01;-18230.41;;;7.52;100.00
24746;BME280;12845;52.042;6.838;2023-02-20T11:43:42;-18229.47;;;7.48;100.00
24746;BME280;12845;52.042;6.838;2023-02-20T11:48:34;-18228.63;;;7.45;100.00
24746;BME280;12845;52.042;6.838;2023-02-20T11:50:59;-18228.63;;;7.45;100.00
24746;BME280;12845;52.042;6.838;2023-02-20T11:53:26;-18228.50;;;7.44;100.00
24746;BME280;12845;52.042;6.838;2023-02-20T11:56:09;-18228.75;;;7.45;100.00
24746;BME280;12845;52.042;6.838;2023-02-20T11:58:35;-18228.50;;;7.44;100.00
24746;BME280;12845;52.042;6.838;2023-02-20T12:01:01;-18228.75;;;7.45;100.00
24746;BME280;12845;52.042;6.838;2023-02-20T12:03:27;-18228.75;;;7.45;100.00
24746;BME280;12845;52.042;6.838;2023-02-20T12:05:53;-18229.03;;;7.46;100.00
24746;BME280;12845;52.042;6.838;2023-02-20T12:08:22;-18228.50;;;7.44;100.00
24746;BME280;12845;52.042;6.838;2023-02-20T12:10:52;-18228.22;;;7.43;100.00
24746;BME280;12845;52.042;6.838;2023-02-20T12:13:20;-18228.50;;;7.44;100.00
24746;BME280;12845;52.042;6.838;2023-02-20T12:15:50;-18228.22;;;7.43;100.00
24746;BME280;12845;52.042;6.838;2023-02-20T12:18:31;-18228.06;;;7.43;100.00
24746;BME280;12845;52.042;6.838;2023-02-20T12:36:20;-18227.78;;;7.42;100.00
24746;BME280;12845;52.042;6.838;2023-02-20T12:38:49;-18227.94;;;7.42;100.00
24746;BME280;12845;52.042;6.838;2023-02-20T12:41:30;-18227.94;;;7.42;100.00
24746;BME280;12845;52.042;6.838;2023-02-20T12:51:59;-18229.03;;;7.46;100.00
24746;BME280;12845;52.042;6.838;2023-02-20T12:54:45;-18229.47;;;7.48;100.00
24746;BME280;12845;52.042;6.838;2023-02-20T12:57:16;-18229.31;;;7.47;100.00
24746;BME280;12845;52.042;6.838;2023-02-20T12:59:59;-18229.19;;;7.47;100.00
24746;BME280;12845;52.042;6.838;2023-02-20T13:02:31;-18228.91;;;7.46;100.00
24746;BME280;12845;52.042;6.838;2023-02-20T13:04:59;-18228.50;;;7.44;100.00
24746;BME280;12845;52.042;6.838;2023-02-20T13:10:15;-18229.59;;;7.49;100.00
24746;BME280;12845;52.042;6.838;2023-02-20T13:12:42;-18229.59;;;7.49;100.00
24746;BME280;12845;52.042;6.838;2023-02-20T13:17:51;-18230.13;;;7.51;100.00
24746;BME280;12845;52.042;6.838;2023-02-20T13:20:21;-18230.41;;;7.52;100.00
24746;BME280;12845;52.042;6.838;2023-02-20T13:23:48;-18229.72;;;7.49;100.00
24746;BME280;12845;52.042;6.838;2023-02-20T13:25:43;-18230.00;;;7.50;100.00
24746;BME280;12845;52.042;6.838;2023-02-20T13:30:37;-18231.53;;;7.56;100.00
24746;BME280;12845;52.042;6.838;2023-02-20T13:33:12;-18231.25;;;7.55;100.00
24746;BME280;12845;52.042;6.838;2023-02-20T13:35:51;-18230.69;;;7.53;100.00
24746;BME280;12845;52.042;6.838;2023-02-20T13:38:17;-18230.97;;;7.54;100.00
24746;BME280;12845;52.042;6.838;2023-02-20T13:40:44;-18231.53;;;7.56;100.00
24746;BME280;12845;52.042;6.838;2023-02-20T13:45:35;-18232.06;;;7.58;100.00
24746;BME280;12845;52.042;6.838;2023-02-20T13:50:45;-18233.16;;;7.62;100.00
24746;BME280;12845;52.042;6.838;2023-02-20T13:53:11;-18234.13;;;7.65;100.00
24746;BME280;12845;52.042;6.838;2023-02-20T13:55:36;-18234.41;;;7.66;100.00
24746;BME280;12845;52.042;6.838;2023-02-20T14:02:52;-18235.09;;;7.69;100.00
24746;BME280;12845;52.042;6.838;2023-02-20T14:05:28;-18235.66;;;7.71;100.00
24746;BME280;12845;52.042;6.838;2023-02-20T14:07:55;-18236.34;;;7.74;100.00
24746;BME280;12845;52.042;6.838;2023-02-20T14:12:52;-18237.72;;;7.79;100.00
24746;BME280;12845;52.042;6.838;2023-02-20T14:15:19;-18237.84;;;7.79;100.00
24746;BME280;12845;52.042;6.838;2023-02-20T14:17:44;-18239.22;;;7.84;100.00
24746;BME280;12845;52.042;6.838;2023-02-20T14:20:53;-18239.22;;;7.84;100.00
24746;BME280;12845;52.042;6.838;2023-02-20T14:23:09;-18239.50;;;7.85;100.00
24746;BME280;12845;52.042;6.838;2023-02-20T14:25:35;-18239.50;;;7.85;100.00
24746;BME280;12845;52.042;6.838;2023-02-20T14:28:13;-18239.09;;;7.84;100.00
24746;BME280;12845;52.042;6.838;2023-02-20T14:30:39;-18240.06;;;7.87;100.00
24746;BME280;12845;52.042;6.838;2023-02-20T14:33:09;-18240.06;;;7.87;100.00
24746;BME280;12845;52.042;6.838;2023-02-20T14:38:32;-18240.47;;;7.89;100.00
24746;BME280;12845;52.042;6.838;2023-02-20T14:41:37;-18240.88;;;7.90;100.00
24746;BME280;12845;52.042;6.838;2023-02-20T14:43:57;-18241.16;;;7.91;100.00
24746;BME280;12845;52.042;6.838;2023-02-20T14:46:32;-18241.44;;;7.93;100.00
24746;BME280;12845;52.042;6.838;2023-02-20T14:51:35;-18242.13;;;7.95;100.00